Time;durP1;ratioP1;P1;durP2;ratioP2;P2;SDS_P1;SDS_P2;PMS_P1;PMS_P2;Temp;Humidity;BMP_temperature;BMP_pressure;BME280_temperature;BME280_humidity;BME280_pressure;Samples;Min_cycle;Max_cycle;Signal;HPM_P1;HPM_P2
2022/09/21 00:01:27;;;;;;;0.90;0.90;;;;;;;9.95;87.05;96145.66;4386297;32;20285;-61
2022/09/21 00:03:55;;;;;;;0.53;0.53;;;;;;;9.88;87.53;96147.78;4376102;32;20203;-61
2022/09/21 00:06:22;;;;;;;0.77;0.77;;;;;;;9.82;87.41;96148.84;4385903;32;20358;-61
2022/09/21 00:08:49;;;;;;;1.17;1.03;;;;;;;9.75;87.67;96146.47;4393682;32;20305;-61
2022/09/21 00:11:19;;;;;;;5.67;1.27;;;;;;;9.71;87.96;96148.06;4392475;32;20184;-61
2022/09/21 00:13:45;;;;;;;0.87;0.83;;;;;;;9.62;88.31;96147.00;4375497;32;20243;-61
2022/09/21 00:16:13;;;;;;;1.17;0.87;;;;;;;9.58;88.64;96144.09;4387642;32;20200;-61
2022/09/21 00:18:40;;;;;;;2.27;1.07;;;;;;;9.75;87.95;96143.03;4392410;32;20185;-61
2022/09/21 00:21:09;;;;;;;0.53;0.53;;;;;;;9.78;87.87;96147.78;4364060;32;20197;-61
2022/09/21 00:23:35;;;;;;;0.80;0.80;;;;;;;9.79;88.16;96144.06;4367676;32;20184;-61
2022/09/21 00:26:21;;;;;;;0.20;0.20;;;;;;;9.89;87.63;96144.06;4388924;32;20184;-61
2022/09/21 00:28:55;;;;;;;0.83;0.83;;;;;;;9.88;87.79;96147.78;4392227;32;26577;-61
2022/09/21 00:31:22;;;;;;;0.40;0.40;;;;;;;9.83;87.51;96150.44;4379113;32;20229;-61
2022/09/21 00:33:49;;;;;;;0.60;0.60;;;;;;;9.79;87.83;96149.38;4391194;32;20426;-61
2022/09/21 00:36:17;;;;;;;0.30;0.30;;;;;;;9.81;87.30;96141.94;4376097;32;20196;-61
2022/09/21 00:38:49;;;;;;;0.67;0.67;;;;;;;9.70;87.80;96150.97;4355667;32;20242;-61
2022/09/21 00:41:16;;;;;;;0.77;0.73;;;;;;;9.79;87.37;96150.16;4385362;32;20241;-61
2022/09/21 00:43:46;;;;;;;0.93;0.93;;;;;;;9.72;87.56;96149.66;4377253;32;20192;-61
2022/09/21 00:46:34;;;;;;;0.57;0.57;;;;;;;9.73;88.34;96155.75;4391212;32;20196;-61
2022/09/21 00:49:00;;;;;;;0.77;0.77;;;;;;;9.61;88.56;96151.50;4402404;32;20291;-61
2022/09/21 00:51:25;;;;;;;0.70;0.70;;;;;;;9.65;88.11;96146.47;4396528;32;20176;-60
2022/09/21 00:53:57;;;;;;;0.20;0.20;;;;;;;9.52;88.62;96157.63;4407818;32;20238;-61
2022/09/21 00:56:24;;;;;;;0.60;0.60;;;;;;;9.46;88.29;96156.81;4384001;32;20206;-60
2022/09/21 00:58:51;;;;;;;0.70;0.70;;;;;;;9.51;87.90;96153.38;4359396;32;20319;-60
2022/09/21 01:01:20;;;;;;;0.77;0.77;;;;;;;9.46;88.15;96150.72;4388747;32;20321;-61
2022/09/21 01:03:47;;;;;;;0.57;0.37;;;;;;;9.49;88.43;96156.28;4393992;32;20196;-61
2022/09/21 01:06:15;;;;;;;0.70;0.70;;;;;;;9.54;87.65;96151.00;4383035;32;20188;-61
2022/09/21 01:08:43;;;;;;;6.27;0.73;;;;;;;9.44;88.10;96145.69;4405173;32;20214;-60
2022/09/21 01:11:21;;;;;;;0.93;0.87;;;;;;;9.48;87.87;96148.62;4393386;32;20359;-61
2022/09/21 01:14:18;;;;;;;0.53;0.53;;;;;;;9.39;87.82;96145.69;4369387;32;20446;-61
2022/09/21 01:16:52;;;;;;;0.30;0.30;;;;;;;9.26;88.75;96148.88;4373180;32;20367;-60
2022/09/21 01:19:43;;;;;;;0.50;0.50;;;;;;;9.35;88.11;96144.66;4379247;32;20301;-61
2022/09/21 01:22:47;;;;;;;0.40;0.40;;;;;;;9.41;87.44;96142.78;4392642;32;20288;-60
2022/09/21 01:25:13;;;;;;;0.90;0.90;;;;;;;9.22;88.11;96151.25;4387381;32;20360;-60
2022/09/21 01:28:01;;;;;;;0.30;0.30;;;;;;;9.19;88.50;96157.06;4364260;32;20289;-61
2022/09/21 01:30:32;;;;;;;0.30;0.30;;;;;;;9.18;88.91;96158.13;4384337;32;20256;-60
2022/09/21 01:33:16;;;;;;;0.57;0.57;;;;;;;9.20;88.10;96149.91;4391748;32;20291;-62
2022/09/21 01:35:53;;;;;;;0.57;0.50;;;;;;;9.17;88.45;96153.88;4362854;32;20318;-61
2022/09/21 01:38:26;;;;;;;0.83;0.67;;;;;;;9.22;87.78;96145.16;4397917;32;20284;-60
2022/09/21 01:40:59;;;;;;;0.77;0.77;;;;;;;9.24;87.75;96150.97;4390374;32;20287;-60
2022/09/21 01:43:32;;;;;;;0.50;0.50;;;;;;;9.37;86.76;96147.81;4387414;32;20298;-60
2022/09/21 01:46:00;;;;;;;0.50;0.47;;;;;;;9.29;86.93;96158.94;4394321;32;20288;-66
2022/09/21 01:48:34;;;;;;;0.60;0.60;;;;;;;9.20;87.43;96153.34;4372053;32;20279;-61
2022/09/21 01:51:05;;;;;;;0.73;0.30;;;;;;;9.14;88.03;96153.63;4392995;32;20335;-60
2022/09/21 01:53:51;;;;;;;1.27;1.17;;;;;;;9.18;88.12;96152.03;4381859;32;20188;-60
2022/09/21 01:56:42;;;;;;;0.30;0.30;;;;;;;9.14;87.82;96153.63;4390318;32;20286;-61
2022/09/21 01:59:42;;;;;;;0.40;0.40;;;;;;;8.93;88.37;96153.59;4341975;32;20348;-61
2022/09/21 02:02:16;;;;;;;1.73;0.70;;;;;;;9.08;88.03;96147.53;4367009;32;20326;-60
2022/09/21 02:04:43;;;;;;;1.13;1.07;;;;;;;9.00;87.37;96155.19;4386444;32;20308;-60
2022/09/21 02:07:10;;;;;;;0.20;0.20;;;;;;;8.79;88.07;96149.84;4384086;32;20275;-61
2022/09/21 02:09:36;;;;;;;0.57;0.57;;;;;;;8.87;88.07;96157.28;4398629;32;20302;-61
2022/09/21 02:12:05;;;;;;;0.87;0.63;;;;;;;8.78;88.38;96150.91;4375176;32;20201;-60
2022/09/21 02:14:32;;;;;;;2.53;1.10;;;;;;;8.77;88.69;96162.53;4390013;32;20284;-60
2022/09/21 02:17:10;;;;;;;0.60;0.60;;;;;;;8.76;88.76;96149.56;4391223;32;20268;-61
2022/09/21 02:20:14;;;;;;;0.50;0.50;;;;;;;8.90;87.76;96148.84;4399753;32;20299;-60
2022/09/21 02:23:03;;;;;;;0.80;0.80;;;;;;;8.89;87.74;96146.44;4396760;32;20269;-61
2022/09/21 02:25:59;;;;;;;0.70;0.70;;;;;;;9.01;87.11;96148.84;4376648;32;20296;-61
2022/09/21 02:28:50;;;;;;;0.30;0.30;;;;;;;8.96;86.78;96145.13;4348348;32;20288;-60
2022/09/21 02:31:43;;;;;;;0.47;0.47;;;;;;;8.73;88.02;96148.25;4368664;32;20276;-60
2022/09/21 02:34:33;;;;;;;1.23;0.87;;;;;;;8.90;87.35;96154.13;4377420;32;20299;-60
2022/09/21 02:37:09;;;;;;;1.97;1.00;;;;;;;8.93;87.03;96143.03;4392474;32;20303;-61
2022/09/21 02:40:25;;;;;;;0.60;0.60;;;;;;;8.67;88.04;96151.94;4378688;32;20321;-62
2022/09/21 02:43:11;;;;;;;0.70;0.60;;;;;;;8.61;88.38;96155.62;4365509;32;20284;-61
2022/09/21 02:45:44;;;;;;;0.43;0.43;;;;;;;8.73;88.48;96158.06;4377875;32;20271;-60
2022/09/21 02:48:17;;;;;;;0.30;0.30;;;;;;;8.57;88.54;96167.78;4389411;32;20280;-60
2022/09/21 02:50:55;;;;;;;0.63;0.47;;;;;;;8.83;87.56;96164.16;4387827;32;20284;-61
2022/09/21 02:53:26;;;;;;;0.77;0.50;;;;;;;8.75;87.52;96151.44;4381356;32;20276;-60
2022/09/21 02:55:56;;;;;;;0.67;0.67;;;;;;;8.89;87.57;96149.88;4371318;32;20298;-60
2022/09/21 02:58:26;;;;;;;0.63;0.63;;;;;;;8.89;87.12;96151.75;4393064;32;20347;-61
2022/09/21 03:00:56;;;;;;;1.07;0.97;;;;;;;8.80;87.29;96156.72;4373179;32;20284;-60
2022/09/21 03:03:23;;;;;;;1.07;1.07;;;;;;;8.69;87.68;96151.69;4347266;32;20273;-61
2022/09/21 03:05:52;;;;;;;0.47;0.47;;;;;;;8.78;87.34;96161.50;4383871;32;20371;-61
2022/09/21 03:08:21;;;;;;;0.70;0.53;;;;;;;8.81;86.96;96160.97;4372594;32;20393;-60
2022/09/21 03:10:51;;;;;;;0.97;0.97;;;;;;;8.73;87.69;96158.81;4394546;32;20284;-61
2022/09/21 03:13:18;;;;;;;0.70;0.70;;;;;;;8.69;87.66;96157.78;4388281;32;20299;-60
2022/09/21 03:15:44;;;;;;;0.30;0.30;;;;;;;8.78;87.46;96156.19;4374312;32;20284;-61
2022/09/21 03:18:10;;;;;;;0.20;0.20;;;;;;;8.73;87.42;96156.19;4390866;32;20288;-61
2022/09/21 03:20:38;;;;;;;0.70;0.70;;;;;;;8.82;87.00;96162.56;4375914;32;20242;-60
2022/09/21 03:23:04;;;;;;;0.83;0.83;;;;;;;8.76;87.13;96168.88;4382141;32;20287;-61
2022/09/21 03:25:29;;;;;;;0.60;0.60;;;;;;;8.76;86.99;96162.81;4359954;32;20280;-61
2022/09/21 03:27:55;;;;;;;0.83;0.83;;;;;;;8.70;87.34;96164.66;4388112;32;20182;-61
2022/09/21 03:30:24;;;;;;;0.50;0.50;;;;;;;8.75;87.10;96164.66;4383789;32;20202;-61
2022/09/21 03:32:53;;;;;;;0.40;0.40;;;;;;;8.81;86.86;96165.47;4397725;32;20288;-60
2022/09/21 03:35:20;;;;;;;4.90;0.50;;;;;;;8.70;87.00;96164.66;4390829;32;20334;-60
2022/09/21 03:37:47;;;;;;;0.83;0.83;;;;;;;8.74;86.95;96164.91;4394097;32;20277;-60
2022/09/21 03:40:15;;;;;;;0.73;0.73;;;;;;;8.76;86.83;96163.59;4389388;32;20302;-61
2022/09/21 03:42:41;;;;;;;0.43;0.43;;;;;;;8.77;86.50;96159.09;4350860;32;20301;-60
2022/09/21 03:45:08;;;;;;;2.43;0.60;;;;;;;8.78;86.58;96164.12;4410883;32;20354;-61
2022/09/21 03:47:34;;;;;;;0.70;0.70;;;;;;;8.50;87.51;96167.22;4394937;32;20315;-61
2022/09/21 03:50:03;;;;;;;0.80;0.80;;;;;;;8.70;87.01;96159.37;4399161;32;20284;-61
2022/09/21 03:52:28;;;;;;;0.57;0.57;;;;;;;8.63;87.11;96163.31;4392910;32;20196;-60
2022/09/21 03:54:54;;;;;;;0.67;0.67;;;;;;;8.57;87.51;96158.00;4392342;32;20278;-61
2022/09/21 03:57:20;;;;;;;0.40;0.40;;;;;;;8.42;88.02;96167.72;4380571;32;20218;-60
2022/09/21 03:59:45;;;;;;;0.47;0.47;;;;;;;8.41;88.00;96155.56;4375826;32;20239;-61
2022/09/21 04:02:14;;;;;;;0.20;0.20;;;;;;;8.37;88.06;96165.03;4392831;32;20267;-60
2022/09/21 04:04:43;;;;;;;0.60;0.60;;;;;;;8.30;87.90;96161.84;4381620;32;20187;-61
2022/09/21 04:07:08;;;;;;;0.20;0.20;;;;;;;8.36;87.63;96163.44;4409456;32;20271;-61
2022/09/21 04:09:33;;;;;;;0.43;0.43;;;;;;;8.45;87.08;96173.28;4393708;32;20293;-61
2022/09/21 04:12:01;;;;;;;0.93;0.53;;;;;;;8.43;86.94;96170.09;4392706;32;20184;-61
2022/09/21 04:14:27;;;;;;;0.27;0.27;;;;;;;8.32;86.55;96170.28;4389773;32;20204;-60
2022/09/21 04:16:54;;;;;;;0.63;0.43;;;;;;;8.41;86.22;96172.22;4397005;32;20307;-61
2022/09/21 04:19:21;;;;;;;0.63;0.63;;;;;;;8.42;85.88;96167.72;4376983;32;20272;-60
2022/09/21 04:21:50;;;;;;;0.53;0.53;;;;;;;8.36;85.90;96176.66;4398734;32;20200;-61
2022/09/21 04:24:18;;;;;;;0.43;0.43;;;;;;;8.22;86.43;96177.13;4377680;32;20280;-60
2022/09/21 04:26:48;;;;;;;2.00;0.40;;;;;;;8.16;86.34;96175.50;4393106;32;20283;-60
2022/09/21 04:29:16;;;;;;;0.20;0.20;;;;;;;8.24;86.34;96182.94;4370374;32;20324;-61
2022/09/21 04:31:44;;;;;;;0.43;0.43;;;;;;;8.27;86.19;96176.34;4390022;32;20296;-60
2022/09/21 04:34:12;;;;;;;0.60;0.60;;;;;;;8.02;87.02;96179.66;4389496;32;20280;-61
2022/09/21 04:36:38;;;;;;;0.30;0.30;;;;;;;8.14;86.84;96182.09;4379018;32;20295;-60
2022/09/21 04:39:05;;;;;;;0.50;0.50;;;;;;;8.05;87.10;96181.00;4400776;32;20292;-60
2022/09/21 04:41:30;;;;;;;0.37;0.37;;;;;;;7.94;87.64;96183.56;4394803;32;20184;-60
2022/09/21 04:43:57;;;;;;;0.50;0.50;;;;;;;7.88;88.07;96178.50;4381802;32;20283;-59
2022/09/21 04:46:22;;;;;;;0.20;0.20;;;;;;;7.86;88.11;96183.25;4396034;32;20387;-60
2022/09/21 04:48:48;;;;;;;1.80;0.90;;;;;;;7.94;88.11;96182.75;4361073;32;20282;-60
2022/09/21 04:51:15;;;;;;;0.53;0.53;;;;;;;7.96;87.23;96188.59;4376103;32;20189;-60
2022/09/21 04:53:43;;;;;;;0.60;0.60;;;;;;;8.02;87.36;96184.94;4385439;32;20325;-59
2022/09/21 04:56:14;;;;;;;0.33;0.33;;;;;;;8.12;87.09;96189.47;4350737;32;20349;-61
2022/09/21 04:58:40;;;;;;;0.90;0.90;;;;;;;8.00;87.27;96192.31;4378402;32;20288;-60
2022/09/21 05:01:06;;;;;;;0.40;0.40;;;;;;;8.01;87.56;96199.19;4385958;32;20302;-60
2022/09/21 05:03:32;;;;;;;0.43;0.43;;;;;;;7.90;87.73;96205.44;4387804;32;20180;-60
2022/09/21 05:06:01;;;;;;;0.60;0.60;;;;;;;7.94;87.29;96209.19;4392629;32;20413;-61
2022/09/21 05:11:15;;;;;;;0.60;0.60;;;;;;;7.81;88.49;96209.62;4384532;32;20295;-61
2022/09/21 05:13:41;;;;;;;1.80;1.03;;;;;;;7.97;87.67;96215.81;4412259;32;20305;-61
2022/09/21 05:16:10;;;;;;;0.93;0.53;;;;;;;7.96;88.16;96212.37;4391698;32;20291;-60
2022/09/21 05:18:35;;;;;;;1.23;1.13;;;;;;;8.04;88.04;96213.75;4380643;32;20249;-60
2022/09/21 05:21:05;;;;;;;0.63;0.63;;;;;;;8.01;87.64;96214.25;4402073;32;20287;-60
2022/09/21 05:23:32;;;;;;;0.30;0.30;;;;;;;7.85;88.26;96216.78;4384326;32;20184;-60
2022/09/21 05:25:59;;;;;;;0.77;0.77;;;;;;;7.84;88.63;96225.78;4373017;32;20355;-67
2022/09/21 05:28:26;;;;;;;0.57;0.53;;;;;;;7.88;88.86;96226.06;4345064;32;20293;-60
2022/09/21 05:31:10;;;;;;;0.77;0.77;;;;;;;7.96;88.46;96219.50;4381106;32;20360;-60
2022/09/21 05:33:41;;;;;;;0.23;0.23;;;;;;;8.02;88.07;96221.13;4392526;32;20347;-60
2022/09/21 05:36:48;;;;;;;0.40;0.40;;;;;;;7.98;87.81;96222.69;4385929;32;20336;-60
2022/09/21 05:39:16;;;;;;;0.50;0.50;;;;;;;7.81;89.42;96221.00;4351048;32;20331;-60
2022/09/21 05:41:43;;;;;;;0.70;0.70;;;;;;;8.15;87.75;96225.97;4365614;32;20341;-60
2022/09/21 05:44:16;;;;;;;0.40;0.40;;;;;;;8.07;88.01;96227.25;4357683;32;20275;-60
2022/09/21 05:46:48;;;;;;;1.10;1.00;;;;;;;8.25;87.44;96232.12;4371219;32;20296;-61
2022/09/21 05:49:27;;;;;;;0.40;0.40;;;;;;;8.14;87.43;96227.81;4382293;32;20302;-60
2022/09/21 05:52:19;;;;;;;0.40;0.40;;;;;;;8.16;87.61;96220.41;4377967;32;20304;-60
2022/09/21 05:55:10;;;;;;;0.37;0.37;;;;;;;8.18;87.68;96222.81;4367633;32;20298;-60
2022/09/21 05:57:55;;;;;;;0.53;0.53;;;;;;;8.23;87.69;96221.00;4368109;32;20331;-60
2022/09/21 06:00:22;;;;;;;2.37;1.27;;;;;;;8.13;88.15;96220.91;4360013;32;20396;-61
2022/09/21 06:03:47;;;;;;;1.10;1.10;;;;;;;8.25;87.96;96216.25;4345368;32;23268;-61
2022/09/21 06:06:13;;;;;;;0.80;0.80;;;;;;;8.22;87.89;96222.03;4338215;32;20296;-60
2022/09/21 06:08:38;;;;;;;1.60;0.60;;;;;;;8.20;88.20;96221.50;4317615;32;20361;-61
2022/09/21 06:11:04;;;;;;;0.77;0.77;;;;;;;8.16;88.46;96227.56;4360904;32;20192;-60
2022/09/21 06:13:30;;;;;;;1.03;1.03;;;;;;;8.27;88.46;96230.00;4366442;32;20193;-61
2022/09/21 06:15:57;;;;;;;0.97;0.73;;;;;;;8.35;87.73;96225.31;4375893;32;20198;-61
2022/09/21 06:18:24;;;;;;;0.40;0.40;;;;;;;8.25;88.18;96226.81;4376172;32;20383;-60
2022/09/21 06:20:50;;;;;;;0.57;0.57;;;;;;;8.33;88.54;96235.34;4370932;32;20312;-60
2022/09/21 06:23:17;;;;;;;0.90;0.90;;;;;;;8.38;88.15;96236.16;4397588;32;20192;-60
2022/09/21 06:25:43;;;;;;;1.20;1.20;;;;;;;8.63;87.56;96232.06;4388795;32;20276;-60
2022/09/21 06:28:10;;;;;;;1.20;1.20;;;;;;;8.73;87.20;96232.88;4400795;32;20302;-61
2022/09/21 06:30:38;;;;;;;1.03;1.03;;;;;;;8.59;87.77;96237.88;4386283;32;20227;-60
2022/09/21 06:33:06;;;;;;;1.50;1.13;;;;;;;8.66;87.95;96242.94;4402583;32;20180;-61
2022/09/21 06:35:35;;;;;;;0.50;0.50;;;;;;;8.64;87.74;96234.44;4380033;32;20302;-61
2022/09/21 06:38:05;;;;;;;0.90;0.90;;;;;;;8.76;87.94;96242.97;4405160;32;20283;-61
2022/09/21 06:40:34;;;;;;;1.90;0.80;;;;;;;8.98;87.06;96239.34;4366812;32;20276;-61
2022/09/21 06:43:02;;;;;;;0.50;0.50;;;;;;;8.97;87.26;96238.53;4384242;32;20317;-60
2022/09/21 06:45:30;;;;;;;0.43;0.43;;;;;;;9.09;87.35;96238.31;4381064;32;20348;-65
2022/09/21 06:47:56;;;;;;;1.00;1.00;;;;;;;9.09;87.47;96240.97;4388715;32;20279;-60
2022/09/21 06:50:22;;;;;;;0.40;0.40;;;;;;;9.12;87.63;96243.09;4378822;32;20435;-60
2022/09/21 06:52:52;;;;;;;0.90;0.90;;;;;;;9.18;88.13;96240.19;4357710;32;22002;-60
2022/09/21 06:55:19;;;;;;;1.43;0.80;;;;;;;9.01;88.37;96246.75;4367100;32;20304;-60
2022/09/21 06:57:46;;;;;;;0.63;0.63;;;;;;;8.95;88.92;96246.72;4380546;32;20297;-63
2022/09/21 07:00:12;;;;;;;0.67;0.67;;;;;;;9.02;89.27;96245.69;4348037;32;20300;-62
2022/09/21 07:02:47;;;;;;;1.10;1.10;;;;;;;9.15;89.11;96245.19;4375600;32;20399;-60
2022/09/21 07:05:13;;;;;;;1.17;1.17;;;;;;;9.14;88.63;96243.63;4383073;32;20343;-59
2022/09/21 07:07:39;;;;;;;0.83;0.83;;;;;;;9.17;88.80;96245.72;4390413;32;20292;-61
2022/09/21 07:10:07;;;;;;;0.70;0.70;;;;;;;9.33;88.88;96242.09;4375362;32;20282;-60
2022/09/21 07:12:42;;;;;;;1.53;1.43;;;;;;;9.43;88.44;96247.38;4370884;32;20208;-61
2022/09/21 07:15:10;;;;;;;1.30;1.30;;;;;;;9.55;87.87;96249.81;4391825;32;20184;-60
2022/09/21 07:17:38;;;;;;;2.33;1.37;;;;;;;9.68;87.48;96251.91;4380747;32;20333;-59
2022/09/21 07:20:08;;;;;;;0.73;0.73;;;;;;;9.76;87.31;96247.97;4386917;32;20301;-61
2022/09/21 07:22:35;;;;;;;0.70;0.70;;;;;;;9.76;87.57;96246.09;4403665;32;20292;-58
2022/09/21 07:25:03;;;;;;;1.07;1.07;;;;;;;9.80;88.07;96251.66;4400613;32;20248;-51
2022/09/21 07:27:30;;;;;;;3.23;0.80;;;;;;;11.50;100.00;96237.34;4396263;32;20233;-48
2022/09/21 07:29:56;;;;;;;1.30;0.90;;;;;;;12.06;100.00;96244.91;4404119;32;20251;-51
2022/09/21 07:32:27;;;;;;;1.50;0.93;;;;;;;12.43;95.08;96243.53;4405736;32;20297;-51
2022/09/21 07:34:55;;;;;;;3.23;0.97;;;;;;;13.24;91.90;96247.94;4382416;32;20226;-50
2022/09/21 07:37:23;;;;;;;0.73;0.60;;;;;;;13.24;85.98;96242.59;4396066;32;22618;-53
2022/09/21 07:39:56;;;;;;;0.73;0.73;;;;;;;13.61;82.76;96242.59;4398148;32;20263;-52
2022/09/21 07:42:26;;;;;;;4.83;1.33;;;;;;;13.77;79.45;96249.28;4366909;32;20245;-51
2022/09/21 07:44:53;;;;;;;0.47;0.47;;;;;;;13.99;79.67;96242.53;4367580;32;20184;-51
2022/09/21 07:47:19;;;;;;;0.73;0.73;;;;;;;13.91;77.21;96246.69;4384528;32;20324;-54
2022/09/21 07:49:45;;;;;;;0.90;0.87;;;;;;;14.14;77.91;96250.28;4404284;32;20188;-54
2022/09/21 07:52:14;;;;;;;0.50;0.50;;;;;;;14.24;78.33;96249.34;4393848;32;20299;-51
2022/09/21 07:54:44;;;;;;;0.87;0.87;;;;;;;14.18;75.04;96251.28;4342104;32;20194;-47
2022/09/21 07:59:57;;;;;;;9.60;1.30;;;;;;;14.07;68.71;96248.00;4396659;32;20203;-50
2022/09/21 08:02:24;;;;;;;0.60;0.60;;;;;;;14.55;75.07;96250.41;4390910;32;20188;-53
2022/09/21 08:04:51;;;;;;;0.30;0.30;;;;;;;13.50;67.22;96262.50;4387397;32;20180;-52
2022/09/21 08:07:16;;;;;;;2.93;0.73;;;;;;;14.34;74.40;96257.94;4378638;32;20239;-51
2022/09/21 08:09:42;;;;;;;1.30;0.40;;;;;;;14.00;66.18;96254.78;4390335;32;20184;-54
2022/09/21 08:12:09;;;;;;;0.20;0.20;;;;;;;13.94;67.31;96254.06;4387189;32;20188;-53
2022/09/21 08:14:36;;;;;;;0.33;0.33;;;;;;;13.99;65.67;96255.88;4386710;32;20236;-59
2022/09/21 08:17:02;;;;;;;0.37;0.37;;;;;;;14.12;66.82;96247.16;4389937;32;20188;-59
2022/09/21 08:19:27;;;;;;;1.13;0.80;;;;;;;13.55;65.70;96253.63;4410276;32;20202;-57
2022/09/21 08:21:54;;;;;;;10.97;0.93;;;;;;;13.24;67.21;96261.25;4390227;32;20200;-59
2022/09/21 08:24:20;;;;;;;0.30;0.30;;;;;;;12.97;68.19;96262.59;4345908;32;20262;-58
2022/09/21 08:26:50;;;;;;;0.10;0.10;;;;;;;12.67;68.17;96257.66;4380254;32;20250;-58
2022/09/21 08:29:19;;;;;;;0.37;0.37;;;;;;;12.53;69.53;96254.03;4386146;32;20228;-57
2022/09/21 08:31:46;;;;;;;0.33;0.33;;;;;;;12.47;69.34;96257.84;4394548;32;20234;-58
2022/09/21 08:34:11;;;;;;;0.60;0.60;;;;;;;12.44;69.68;96255.75;4390372;32;20180;-58
2022/09/21 08:36:37;;;;;;;0.10;0.10;;;;;;;12.40;70.07;96260.84;4382160;32;20263;-60
2022/09/21 08:39:06;;;;;;;0.13;0.13;;;;;;;12.29;68.85;96262.78;4338135;32;20192;-59
2022/09/21 08:41:47;;;;;;;1.83;0.40;;;;;;;12.32;67.46;96256.13;4394151;32;20241;-59
2022/09/21 08:44:39;;;;;;;0.20;0.20;;;;;;;12.27;68.54;96262.28;4383610;32;20187;-58
2022/09/21 08:47:14;;;;;;;0.30;0.30;;;;;;;12.23;69.22;96258.59;4371195;32;20188;-61
2022/09/21 08:49:49;;;;;;;0.10;0.10;;;;;;;12.39;69.02;96267.22;4394164;32;20215;-59
2022/09/21 08:52:20;;;;;;;0.10;0.10;;;;;;;12.46;67.85;96266.91;4392924;32;20203;-59
2022/09/21 08:55:00;;;;;;;0.50;0.40;;;;;;;12.43;67.57;96265.59;4386993;32;20191;-58
2022/09/21 08:57:32;;;;;;;0.40;0.40;;;;;;;12.53;66.60;96264.69;4376884;32;20262;-59
2022/09/21 09:00:00;;;;;;;0.13;0.13;;;;;;;12.59;66.79;96264.38;4372130;32;20184;-59
2022/09/21 09:02:51;;;;;;;0.87;0.50;;;;;;;12.55;67.47;96262.53;4383160;32;20206;-61
2022/09/21 09:05:32;;;;;;;0.30;0.30;;;;;;;12.58;67.00;96262.00;4379633;32;20242;-60
2022/09/21 09:08:47;;;;;;;0.60;0.60;;;;;;;12.65;66.47;96259.78;4358266;32;20184;-60
2022/09/21 09:11:34;;;;;;;0.30;0.30;;;;;;;12.79;66.99;96257.22;4323511;32;20189;-60
2022/09/21 09:14:38;;;;;;;0.40;0.40;;;;;;;12.67;66.49;96257.66;4371319;32;20215;-61
2022/09/21 09:17:25;;;;;;;2.03;1.93;;;;;;;12.80;65.22;96258.81;4384283;32;20192;-60
2022/09/21 09:20:21;;;;;;;0.33;0.33;;;;;;;12.58;65.02;96259.31;4363749;32;20315;-59
2022/09/21 09:23:12;;;;;;;0.40;0.40;;;;;;;12.65;65.59;96257.13;4393360;32;20193;-60
2022/09/21 09:25:40;;;;;;;0.23;0.23;;;;;;;12.77;66.84;96254.06;4389076;32;20226;-59
2022/09/21 09:28:25;;;;;;;0.20;0.20;;;;;;;12.77;66.88;96254.84;4375570;32;20227;-60
2022/09/21 09:31:23;;;;;;;1.03;0.77;;;;;;;12.89;67.26;96252.56;4390205;32;20188;-61
2022/09/21 09:33:52;;;;;;;0.40;0.40;;;;;;;13.02;65.70;96259.09;4361258;32;20350;-59
2022/09/21 09:36:17;;;;;;;0.30;0.30;;;;;;;12.81;65.46;96258.53;4371919;32;20188;-63
2022/09/21 09:38:57;;;;;;;0.57;0.57;;;;;;;12.78;66.47;96256.44;4365291;32;20194;-60
2022/09/21 09:41:54;;;;;;;0.80;0.50;;;;;;;12.77;65.33;96259.37;4397865;32;20231;-59
2022/09/21 09:44:47;;;;;;;0.37;0.37;;;;;;;12.63;66.34;96253.94;4390481;32;20218;-60
2022/09/21 09:47:41;;;;;;;0.20;0.20;;;;;;;12.61;67.11;96245.47;4369492;32;20187;-61
2022/09/21 09:50:20;;;;;;;0.20;0.20;;;;;;;12.79;65.66;96242.06;4393991;32;20189;-61
2022/09/21 09:52:55;;;;;;;1.40;0.53;;;;;;;13.01;65.50;96244.97;4382432;32;20232;-60
2022/09/21 09:55:25;;;;;;;0.00;0.00;;;;;;;13.17;63.84;96237.59;4377001;32;20263;-61
2022/09/21 09:57:57;;;;;;;0.17;0.17;;;;;;;13.26;61.72;96245.78;4385053;32;20245;-60
2022/09/21 10:00:24;;;;;;;0.43;0.43;;;;;;;13.29;59.15;96231.88;4386270;32;20043;-62
2022/09/21 10:02:53;;;;;;;0.27;0.27;;;;;;;13.29;62.15;96226.53;4375649;32;20184;-61
2022/09/21 10:05:30;;;;;;;0.20;0.20;;;;;;;13.38;61.62;96222.13;4376327;32;20278;-61
2022/09/21 10:07:59;;;;;;;3.63;0.53;;;;;;;13.62;61.37;96222.84;4394984;32;20192;-61
2022/09/21 10:10:40;;;;;;;0.40;0.30;;;;;;;13.54;60.94;96225.38;4379797;32;20193;-61
2022/09/21 10:13:14;;;;;;;0.30;0.30;;;;;;;13.56;61.49;96221.34;4356968;32;20324;-60
2022/09/21 10:15:56;;;;;;;1.40;0.50;;;;;;;13.60;60.71;96218.88;4374054;32;20191;-61
2022/09/21 10:18:51;;;;;;;0.47;0.30;;;;;;;13.69;62.90;96214.50;4386482;32;20187;-61
2022/09/21 10:21:36;;;;;;;0.27;0.27;;;;;;;13.73;59.18;96213.59;4388891;32;20285;-61
2022/09/21 10:24:07;;;;;;;0.00;0.00;;;;;;;13.82;56.17;96220.94;4384969;32;20192;-61
2022/09/21 10:26:49;;;;;;;0.37;0.20;;;;;;;13.53;58.75;96213.91;4393299;32;20187;-61
2022/09/21 10:29:29;;;;;;;1.20;0.53;;;;;;;13.65;59.70;96206.28;4381982;32;20215;-60
2022/09/21 10:32:02;;;;;;;0.77;0.53;;;;;;;13.86;59.19;96201.41;4380409;32;20249;-60
2022/09/21 10:34:33;;;;;;;0.83;0.50;;;;;;;13.86;60.77;96200.63;4387991;32;20194;-61
2022/09/21 10:37:01;;;;;;;0.10;0.10;;;;;;;13.95;59.62;96202.31;4361190;32;20185;-63
2022/09/21 10:39:51;;;;;;;1.70;1.60;;;;;;;13.84;58.33;96192.91;4387855;32;20290;-60
2022/09/21 10:42:18;;;;;;;0.63;0.63;;;;;;;13.86;59.15;96200.63;4396561;32;20250;-60
2022/09/21 10:44:45;;;;;;;1.00;0.60;;;;;;;13.85;59.38;96193.69;4360806;32;20189;-60
2022/09/21 10:47:39;;;;;;;0.20;0.20;;;;;;;13.89;59.45;96189.37;4361014;32;20233;-60
2022/09/21 10:50:22;;;;;;;0.30;0.30;;;;;;;13.87;61.06;96189.66;4370269;32;20176;-60
2022/09/21 10:52:55;;;;;;;0.30;0.30;;;;;;;13.77;60.00;96192.47;4376545;32;20180;-60
2022/09/21 10:55:23;;;;;;;0.50;0.50;;;;;;;13.88;59.48;96195.78;4369498;32;20188;-60
2022/09/21 10:57:54;;;;;;;0.40;0.37;;;;;;;13.82;59.11;96194.28;4364845;32;20284;-60
2022/09/21 11:00:36;;;;;;;0.70;0.70;;;;;;;13.78;59.42;96188.72;4372172;32;20203;-60
2022/09/21 11:03:27;;;;;;;0.20;0.20;;;;;;;13.67;59.64;96188.13;4359257;32;20208;-61
2022/09/21 11:05:54;;;;;;;0.10;0.10;;;;;;;13.59;59.92;96190.63;4374588;32;20203;-58
2022/09/21 11:08:27;;;;;;;0.10;0.10;;;;;;;13.66;59.98;96191.88;4388506;32;20188;-59
2022/09/21 11:11:19;;;;;;;0.03;0.03;;;;;;;13.66;59.79;96188.41;4324142;32;20245;-60
2022/09/21 11:13:55;;;;;;;0.30;0.30;;;;;;;13.61;59.67;96191.94;4390071;32;20176;-59
2022/09/21 11:16:46;;;;;;;0.10;0.10;;;;;;;13.70;59.68;96187.53;4386869;32;20202;-59
2022/09/21 11:19:40;;;;;;;0.20;0.20;;;;;;;13.70;59.47;96176.88;4372409;32;20200;-60
2022/09/21 11:22:22;;;;;;;0.40;0.40;;;;;;;13.84;58.13;96186.78;4390430;32;20180;-59
2022/09/21 11:25:11;;;;;;;0.10;0.10;;;;;;;14.01;57.89;96181.69;4400564;32;20200;-60
2022/09/21 11:27:43;;;;;;;0.33;0.33;;;;;;;13.97;57.07;96175.34;4391423;32;20227;-60
2022/09/21 11:30:17;;;;;;;0.50;0.37;;;;;;;14.01;56.31;96177.13;4371880;32;20188;-60
2022/09/21 11:33:08;;;;;;;0.43;0.43;;;;;;;14.02;57.57;96177.94;4369981;32;20235;-60
2022/09/21 11:36:02;;;;;;;3.20;0.73;;;;;;;13.97;57.65;96167.34;4395096;32;20184;-60
2022/09/21 11:38:33;;;;;;;0.00;0.00;;;;;;;13.95;57.75;96166.84;4370857;32;20176;-59
2022/09/21 11:41:34;;;;;;;0.40;0.40;;;;;;;13.92;57.79;96172.78;4369319;32;20245;-61
2022/09/21 11:44:25;;;;;;;0.53;0.53;;;;;;;14.05;57.95;96161.34;4382490;32;20199;-59
2022/09/21 11:47:06;;;;;;;0.27;0.27;;;;;;;14.08;58.31;96168.75;4383683;32;20211;-59
2022/09/21 11:49:57;;;;;;;0.33;0.33;;;;;;;14.10;56.79;96154.03;4370761;32;20243;-60
2022/09/21 11:53:01;;;;;;;0.93;0.67;;;;;;;14.25;56.93;96166.31;4359031;32;20200;-60
2022/09/21 11:55:54;;;;;;;0.53;0.53;;;;;;;14.18;57.55;96154.44;4346517;32;20242;-59
2022/09/21 11:58:59;;;;;;;0.10;0.10;;;;;;;14.29;57.03;96150.50;4387945;32;20192;-58
2022/09/21 12:01:59;;;;;;;0.20;0.20;;;;;;;14.22;57.37;96145.53;4373915;32;20176;-59
2022/09/21 12:04:42;;;;;;;0.00;0.00;;;;;;;14.27;56.17;96148.12;4341238;32;20237;-60
2022/09/21 12:07:48;;;;;;;0.20;0.20;;;;;;;14.21;56.58;96141.28;4394370;32;20247;-60
2022/09/21 12:10:45;;;;;;;1.90;1.17;;;;;;;14.23;56.91;96138.31;4362660;32;20184;-61
2022/09/21 12:13:39;;;;;;;0.00;0.00;;;;;;;14.27;57.03;96132.09;4397014;32;20267;-61
2022/09/21 12:16:15;;;;;;;0.00;0.00;;;;;;;14.30;56.19;96128.06;4404673;32;20193;-61
2022/09/21 12:18:47;;;;;;;0.00;0.00;;;;;;;14.24;55.61;96127.34;4390195;32;20206;-60